sensor_id;sensor_type;location;lat;lon;timestamp;P1;durP1;ratioP1;P2;durP2;ratioP2
21554;SDS011;10938;44.794;-0.676;2023-02-15T00:01:42;17.52;;;12.63;;
21554;SDS011;10938;44.794;-0.676;2023-02-15T00:04:08;17.30;;;12.70;;
21554;SDS011;10938;44.794;-0.676;2023-02-15T00:06:35;17.27;;;12.60;;
21554;SDS011;10938;44.794;-0.676;2023-02-15T00:09:00;15.60;;;12.57;;
21554;SDS011;10938;44.794;-0.676;2023-02-15T00:11:26;17.25;;;12.00;;
21554;SDS011;10938;44.794;-0.676;2023-02-15T00:14:16;14.80;;;11.40;;
21554;SDS011;10938;44.794;-0.676;2023-02-15T00:16:44;15.13;;;11.35;;
21554;SDS011;10938;44.794;-0.676;2023-02-15T00:19:12;16.90;;;11.75;;
21554;SDS011;10938;44.794;-0.676;2023-02-15T00:21:39;17.38;;;11.23;;
21554;SDS011;10938;44.794;-0.676;2023-02-15T00:24:06;19.88;;;11.18;;
21554;SDS011;10938;44.794;-0.676;2023-02-15T00:26:33;16.40;;;11.55;;
21554;SDS011;10938;44.794;-0.676;2023-02-15T00:28:59;15.90;;;11.32;;
21554;SDS011;10938;44.794;-0.676;2023-02-15T00:31:25;13.57;;;10.63;;
21554;SDS011;10938;44.794;-0.676;2023-02-15T00:33:51;19.27;;;11.05;;
21554;SDS011;10938;44.794;-0.676;2023-02-15T00:36:17;18.30;;;11.23;;
21554;SDS011;10938;44.794;-0.676;2023-02-15T00:38:42;15.43;;;10.50;;
21554;SDS011;10938;44.794;-0.676;2023-02-15T00:41:08;14.35;;;10.80;;
21554;SDS011;10938;44.794;-0.676;2023-02-15T00:43:34;15.98;;;10.65;;
21554;SDS011;10938;44.794;-0.676;2023-02-15T00:46:01;15.10;;;10.48;;
21554;SDS011;10938;44.794;-0.676;2023-02-15T00:48:27;15.40;;;11.23;;
21554;SDS011;10938;44.794;-0.676;2023-02-15T00:50:57;17.38;;;10.60;;
21554;SDS011;10938;44.794;-0.676;2023-02-15T00:53:24;19.55;;;11.25;;
21554;SDS011;10938;44.794;-0.676;2023-02-15T00:55:50;16.73;;;10.07;;
21554;SDS011;10938;44.794;-0.676;2023-02-15T00:58:16;15.98;;;11.27;;
21554;SDS011;10938;44.794;-0.676;2023-02-15T01:00:45;15.48;;;10.98;;
21554;SDS011;10938;44.794;-0.676;2023-02-15T01:03:12;15.80;;;10.30;;
21554;SDS011;10938;44.794;-0.676;2023-02-15T01:05:39;14.85;;;10.07;;
21554;SDS011;10938;44.794;-0.676;2023-02-15T01:08:05;15.38;;;10.45;;
21554;SDS011;10938;44.794;-0.676;2023-02-15T01:10:31;13.40;;;9.90;;
21554;SDS011;10938;44.794;-0.676;2023-02-15T01:12:58;15.88;;;10.63;;
21554;SDS011;10938;44.794;-0.676;2023-02-15T01:15:24;16.77;;;9.55;;
21554;SDS011;10938;44.794;-0.676;2023-02-15T01:17:49;14.38;;;10.10;;
21554;SDS011;10938;44.794;-0.676;2023-02-15T01:20:19;12.70;;;9.52;;
21554;SDS011;10938;44.794;-0.676;2023-02-15T01:22:46;14.80;;;10.07;;
21554;SDS011;10938;44.794;-0.676;2023-02-15T01:25:12;15.45;;;10.40;;
21554;SDS011;10938;44.794;-0.676;2023-02-15T01:27:37;14.73;;;10.07;;
21554;SDS011;10938;44.794;-0.676;2023-02-15T01:30:03;15.45;;;9.90;;
21554;SDS011;10938;44.794;-0.676;2023-02-15T01:32:29;15.48;;;10.45;;
21554;SDS011;10938;44.794;-0.676;2023-02-15T01:34:55;17.08;;;9.50;;
21554;SDS011;10938;44.794;-0.676;2023-02-15T01:37:21;13.13;;;10.02;;
21554;SDS011;10938;44.794;-0.676;2023-02-15T01:39:46;12.80;;;9.00;;
21554;SDS011;10938;44.794;-0.676;2023-02-15T01:42:20;16.75;;;9.40;;
21554;SDS011;10938;44.794;-0.676;2023-02-15T01:47:19;12.13;;;8.68;;
21554;SDS011;10938;44.794;-0.676;2023-02-15T01:49:46;12.48;;;8.85;;
21554;SDS011;10938;44.794;-0.676;2023-02-15T01:52:13;18.05;;;9.77;;
21554;SDS011;10938;44.794;-0.676;2023-02-15T01:54:41;14.55;;;9.43;;
21554;SDS011;10938;44.794;-0.676;2023-02-15T01:57:15;14.73;;;9.52;;
21554;SDS011;10938;44.794;-0.676;2023-02-15T01:59:44;13.27;;;9.52;;
21554;SDS011;10938;44.794;-0.676;2023-02-15T02:04:53;14.07;;;9.27;;
21554;SDS011;10938;44.794;-0.676;2023-02-15T02:07:26;14.40;;;9.18;;
21554;SDS011;10938;44.794;-0.676;2023-02-15T02:09:54;15.30;;;9.50;;
21554;SDS011;10938;44.794;-0.676;2023-02-15T02:12:20;14.73;;;8.57;;
21554;SDS011;10938;44.794;-0.676;2023-02-15T02:14:48;13.60;;;9.10;;
21554;SDS011;10938;44.794;-0.676;2023-02-15T02:27:50;14.00;;;9.60;;
21554;SDS011;10938;44.794;-0.676;2023-02-15T02:36:21;15.27;;;9.02;;
21554;SDS011;10938;44.794;-0.676;2023-02-15T02:44:10;12.00;;;8.75;;
21554;SDS011;10938;44.794;-0.676;2023-02-15T02:49:38;13.48;;;8.30;;
21554;SDS011;10938;44.794;-0.676;2023-02-15T02:52:06;12.30;;;8.48;;
21554;SDS011;10938;44.794;-0.676;2023-02-15T03:00:24;17.58;;;8.82;;
21554;SDS011;10938;44.794;-0.676;2023-02-15T03:02:54;14.80;;;9.25;;
21554;SDS011;10938;44.794;-0.676;2023-02-15T03:05:29;15.00;;;8.95;;
21554;SDS011;10938;44.794;-0.676;2023-02-15T03:07:57;11.48;;;8.15;;
21554;SDS011;10938;44.794;-0.676;2023-02-15T03:10:26;13.18;;;8.70;;
21554;SDS011;10938;44.794;-0.676;2023-02-15T03:12:54;15.07;;;9.27;;
21554;SDS011;10938;44.794;-0.676;2023-02-15T03:15:21;12.60;;;8.32;;
21554;SDS011;10938;44.794;-0.676;2023-02-15T03:17:55;11.93;;;8.50;;
21554;SDS011;10938;44.794;-0.676;2023-02-15T03:20:31;11.77;;;8.63;;
21554;SDS011;10938;44.794;-0.676;2023-02-15T03:23:02;13.18;;;8.43;;
21554;SDS011;10938;44.794;-0.676;2023-02-15T03:25:32;14.70;;;8.60;;
21554;SDS011;10938;44.794;-0.676;2023-02-15T03:28:03;17.05;;;8.52;;
21554;SDS011;10938;44.794;-0.676;2023-02-15T03:30:32;15.23;;;8.88;;
21554;SDS011;10938;44.794;-0.676;2023-02-15T03:33:01;12.27;;;7.88;;
21554;SDS011;10938;44.794;-0.676;2023-02-15T03:35:40;14.70;;;9.13;;
21554;SDS011;10938;44.794;-0.676;2023-02-15T03:38:17;18.25;;;8.68;;
21554;SDS011;10938;44.794;-0.676;2023-02-15T03:40:47;11.48;;;8.95;;
21554;SDS011;10938;44.794;-0.676;2023-02-15T03:46:26;13.90;;;8.32;;
21554;SDS011;10938;44.794;-0.676;2023-02-15T03:49:18;13.30;;;8.07;;
21554;SDS011;10938;44.794;-0.676;2023-02-15T03:51:50;14.32;;;8.85;;
21554;SDS011;10938;44.794;-0.676;2023-02-15T03:54:31;17.33;;;9.18;;
21554;SDS011;10938;44.794;-0.676;2023-02-15T03:57:27;12.13;;;8.55;;
21554;SDS011;10938;44.794;-0.676;2023-02-15T04:00:30;12.60;;;8.18;;
21554;SDS011;10938;44.794;-0.676;2023-02-15T04:05:47;13.63;;;8.23;;
21554;SDS011;10938;44.794;-0.676;2023-02-15T04:08:13;10.65;;;8.07;;
21554;SDS011;10938;44.794;-0.676;2023-02-15T04:10:39;14.10;;;8.88;;
21554;SDS011;10938;44.794;-0.676;2023-02-15T04:13:23;14.07;;;9.30;;
21554;SDS011;10938;44.794;-0.676;2023-02-15T04:15:54;17.92;;;8.77;;
21554;SDS011;10938;44.794;-0.676;2023-02-15T04:21:13;13.02;;;8.80;;
21554;SDS011;10938;44.794;-0.676;2023-02-15T04:23:57;14.73;;;9.32;;
21554;SDS011;10938;44.794;-0.676;2023-02-15T04:26:41;12.90;;;9.35;;
21554;SDS011;10938;44.794;-0.676;2023-02-15T04:29:06;14.80;;;8.73;;
21554;SDS011;10938;44.794;-0.676;2023-02-15T04:31:34;22.92;;;9.05;;
21554;SDS011;10938;44.794;-0.676;2023-02-15T04:33:59;13.48;;;8.98;;
21554;SDS011;10938;44.794;-0.676;2023-02-15T04:36:25;17.25;;;8.43;;
21554;SDS011;10938;44.794;-0.676;2023-02-15T04:38:51;17.60;;;8.98;;
21554;SDS011;10938;44.794;-0.676;2023-02-15T04:41:16;12.88;;;8.82;;
21554;SDS011;10938;44.794;-0.676;2023-02-15T04:43:41;16.55;;;8.60;;
21554;SDS011;10938;44.794;-0.676;2023-02-15T04:46:07;13.57;;;8.80;;
21554;SDS011;10938;44.794;-0.676;2023-02-15T04:48:32;17.52;;;8.93;;
21554;SDS011;10938;44.794;-0.676;2023-02-15T04:50:57;16.70;;;9.43;;
21554;SDS011;10938;44.794;-0.676;2023-02-15T04:53:23;14.65;;;9.00;;
21554;SDS011;10938;44.794;-0.676;2023-02-15T04:55:48;15.18;;;8.48;;
21554;SDS011;10938;44.794;-0.676;2023-02-15T04:58:14;13.25;;;8.68;;
21554;SDS011;10938;44.794;-0.676;2023-02-15T05:00:39;14.52;;;8.80;;
21554;SDS011;10938;44.794;-0.676;2023-02-15T05:03:05;12.13;;;7.88;;
21554;SDS011;10938;44.794;-0.676;2023-02-15T05:05:30;13.38;;;8.52;;
21554;SDS011;10938;44.794;-0.676;2023-02-15T05:07:55;14.68;;;8.52;;
21554;SDS011;10938;44.794;-0.676;2023-02-15T05:10:21;11.25;;;8.32;;
21554;SDS011;10938;44.794;-0.676;2023-02-15T05:12:46;14.32;;;8.30;;
21554;SDS011;10938;44.794;-0.676;2023-02-15T05:15:12;23.63;;;13.10;;
21554;SDS011;10938;44.794;-0.676;2023-02-15T05:17:37;20.15;;;10.93;;
21554;SDS011;10938;44.794;-0.676;2023-02-15T05:20:03;16.55;;;9.30;;
21554;SDS011;10938;44.794;-0.676;2023-02-15T05:22:29;15.57;;;8.88;;
21554;SDS011;10938;44.794;-0.676;2023-02-15T05:24:54;13.93;;;8.68;;
21554;SDS011;10938;44.794;-0.676;2023-02-15T05:27:38;14.90;;;8.80;;
21554;SDS011;10938;44.794;-0.676;2023-02-15T05:30:22;20.13;;;9.48;;
21554;SDS011;10938;44.794;-0.676;2023-02-15T05:32:48;14.10;;;9.15;;
21554;SDS011;10938;44.794;-0.676;2023-02-15T05:35:14;17.13;;;9.02;;
21554;SDS011;10938;44.794;-0.676;2023-02-15T05:37:40;15.95;;;9.60;;
21554;SDS011;10938;44.794;-0.676;2023-02-15T05:40:06;13.82;;;8.77;;
21554;SDS011;10938;44.794;-0.676;2023-02-15T05:42:32;15.18;;;8.82;;
21554;SDS011;10938;44.794;-0.676;2023-02-15T05:44:57;12.15;;;8.15;;
21554;SDS011;10938;44.794;-0.676;2023-02-15T05:47:22;16.42;;;9.23;;
21554;SDS011;10938;44.794;-0.676;2023-02-15T05:49:48;11.63;;;8.77;;
21554;SDS011;10938;44.794;-0.676;2023-02-15T05:52:13;11.88;;;9.27;;
21554;SDS011;10938;44.794;-0.676;2023-02-15T05:54:39;16.33;;;9.48;;
21554;SDS011;10938;44.794;-0.676;2023-02-15T05:57:04;17.52;;;9.68;;
21554;SDS011;10938;44.794;-0.676;2023-02-15T05:59:29;15.60;;;9.27;;
21554;SDS011;10938;44.794;-0.676;2023-02-15T06:01:55;18.65;;;9.20;;
21554;SDS011;10938;44.794;-0.676;2023-02-15T06:04:20;12.65;;;8.85;;
21554;SDS011;10938;44.794;-0.676;2023-02-15T06:06:45;19.52;;;9.70;;
21554;SDS011;10938;44.794;-0.676;2023-02-15T06:09:11;14.55;;;9.55;;
21554;SDS011;10938;44.794;-0.676;2023-02-15T06:11:37;14.32;;;8.07;;
21554;SDS011;10938;44.794;-0.676;2023-02-15T06:14:03;12.13;;;8.75;;
21554;SDS011;10938;44.794;-0.676;2023-02-15T06:16:28;13.00;;;8.15;;
21554;SDS011;10938;44.794;-0.676;2023-02-15T06:18:54;15.05;;;9.20;;
21554;SDS011;10938;44.794;-0.676;2023-02-15T06:21:20;13.68;;;9.32;;
21554;SDS011;10938;44.794;-0.676;2023-02-15T06:23:45;16.38;;;10.15;;
21554;SDS011;10938;44.794;-0.676;2023-02-15T06:26:10;12.30;;;9.30;;
21554;SDS011;10938;44.794;-0.676;2023-02-15T06:28:36;17.77;;;10.98;;
21554;SDS011;10938;44.794;-0.676;2023-02-15T06:31:02;12.85;;;8.95;;
21554;SDS011;10938;44.794;-0.676;2023-02-15T06:33:28;14.82;;;9.82;;
21554;SDS011;10938;44.794;-0.676;2023-02-15T06:35:55;14.85;;;8.88;;
21554;SDS011;10938;44.794;-0.676;2023-02-15T06:38:21;14.23;;;9.40;;
21554;SDS011;10938;44.794;-0.676;2023-02-15T06:40:47;15.30;;;9.63;;
21554;SDS011;10938;44.794;-0.676;2023-02-15T06:43:12;14.43;;;9.15;;
21554;SDS011;10938;44.794;-0.676;2023-02-15T06:45:38;14.02;;;9.40;;
21554;SDS011;10938;44.794;-0.676;2023-02-15T06:48:03;20.15;;;9.98;;
21554;SDS011;10938;44.794;-0.676;2023-02-15T06:50:31;14.13;;;9.20;;
21554;SDS011;10938;44.794;-0.676;2023-02-15T06:52:57;13.85;;;8.85;;
21554;SDS011;10938;44.794;-0.676;2023-02-15T06:55:24;16.05;;;10.00;;
21554;SDS011;10938;44.794;-0.676;2023-02-15T06:57:49;14.90;;;10.25;;
21554;SDS011;10938;44.794;-0.676;2023-02-15T07:00:15;14.70;;;9.95;;
21554;SDS011;10938;44.794;-0.676;2023-02-15T07:02:40;15.05;;;10.15;;
21554;SDS011;10938;44.794;-0.676;2023-02-15T07:05:06;20.13;;;11.68;;
21554;SDS011;10938;44.794;-0.676;2023-02-15T07:07:31;15.30;;;10.90;;
21554;SDS011;10938;44.794;-0.676;2023-02-15T07:09:57;16.05;;;9.98;;
21554;SDS011;10938;44.794;-0.676;2023-02-15T07:12:22;17.00;;;10.07;;
21554;SDS011;10938;44.794;-0.676;2023-02-15T07:15:06;19.83;;;9.75;;
21554;SDS011;10938;44.794;-0.676;2023-02-15T07:17:34;15.55;;;10.23;;
21554;SDS011;10938;44.794;-0.676;2023-02-15T07:20:00;13.90;;;9.88;;
21554;SDS011;10938;44.794;-0.676;2023-02-15T07:22:26;17.33;;;10.35;;
21554;SDS011;10938;44.794;-0.676;2023-02-15T07:24:52;14.70;;;9.77;;
21554;SDS011;10938;44.794;-0.676;2023-02-15T07:27:19;17.35;;;10.20;;
21554;SDS011;10938;44.794;-0.676;2023-02-15T07:29:45;17.67;;;9.73;;
21554;SDS011;10938;44.794;-0.676;2023-02-15T07:32:11;13.52;;;10.20;;
21554;SDS011;10938;44.794;-0.676;2023-02-15T07:34:36;15.73;;;10.10;;
21554;SDS011;10938;44.794;-0.676;2023-02-15T07:37:02;15.05;;;9.57;;
21554;SDS011;10938;44.794;-0.676;2023-02-15T07:39:27;14.48;;;9.95;;
21554;SDS011;10938;44.794;-0.676;2023-02-15T07:41:52;13.68;;;10.60;;
21554;SDS011;10938;44.794;-0.676;2023-02-15T07:44:20;16.95;;;9.23;;
21554;SDS011;10938;44.794;-0.676;2023-02-15T07:46:45;15.35;;;10.00;;
21554;SDS011;10938;44.794;-0.676;2023-02-15T07:49:11;14.75;;;9.45;;
21554;SDS011;10938;44.794;-0.676;2023-02-15T07:51:36;16.70;;;9.27;;
21554;SDS011;10938;44.794;-0.676;2023-02-15T07:54:02;13.93;;;8.90;;
21554;SDS011;10938;44.794;-0.676;2023-02-15T07:56:27;14.63;;;8.70;;
21554;SDS011;10938;44.794;-0.676;2023-02-15T07:58:52;13.80;;;9.32;;
21554;SDS011;10938;44.794;-0.676;2023-02-15T08:01:22;11.10;;;8.43;;
21554;SDS011;10938;44.794;-0.676;2023-02-15T08:04:06;13.63;;;8.15;;
21554;SDS011;10938;44.794;-0.676;2023-02-15T08:06:34;15.93;;;8.93;;
21554;SDS011;10938;44.794;-0.676;2023-02-15T08:09:02;16.15;;;8.77;;
21554;SDS011;10938;44.794;-0.676;2023-02-15T08:11:33;15.73;;;9.25;;
21554;SDS011;10938;44.794;-0.676;2023-02-15T08:14:05;14.68;;;9.05;;
21554;SDS011;10938;44.794;-0.676;2023-02-15T08:16:36;12.98;;;8.65;;
21554;SDS011;10938;44.794;-0.676;2023-02-15T08:19:03;15.13;;;9.02;;
21554;SDS011;10938;44.794;-0.676;2023-02-15T08:21:34;14.43;;;9.30;;
21554;SDS011;10938;44.794;-0.676;2023-02-15T08:24:02;15.98;;;8.93;;
21554;SDS011;10938;44.794;-0.676;2023-02-15T08:26:29;15.65;;;9.35;;
21554;SDS011;10938;44.794;-0.676;2023-02-15T08:28:55;15.52;;;9.10;;
21554;SDS011;10938;44.794;-0.676;2023-02-15T08:31:21;13.57;;;8.95;;
21554;SDS011;10938;44.794;-0.676;2023-02-15T08:33:47;12.57;;;8.18;;
21554;SDS011;10938;44.794;-0.676;2023-02-15T08:36:14;15.10;;;8.15;;
21554;SDS011;10938;44.794;-0.676;2023-02-15T08:38:41;12.50;;;8.60;;
21554;SDS011;10938;44.794;-0.676;2023-02-15T08:41:08;12.40;;;8.45;;
21554;SDS011;10938;44.794;-0.676;2023-02-15T08:43:35;15.15;;;7.97;;
21554;SDS011;10938;44.794;-0.676;2023-02-15T08:46:00;12.32;;;8.50;;
21554;SDS011;10938;44.794;-0.676;2023-02-15T08:48:26;11.55;;;7.85;;
21554;SDS011;10938;44.794;-0.676;2023-02-15T08:50:51;12.57;;;8.55;;
21554;SDS011;10938;44.794;-0.676;2023-02-15T08:53:16;13.38;;;8.10;;
21554;SDS011;10938;44.794;-0.676;2023-02-15T08:55:46;12.32;;;7.82;;
21554;SDS011;10938;44.794;-0.676;2023-02-15T08:58:12;9.88;;;7.70;;
21554;SDS011;10938;44.794;-0.676;2023-02-15T09:00:37;10.25;;;7.38;;
21554;SDS011;10938;44.794;-0.676;2023-02-15T09:03:03;12.98;;;8.13;;
21554;SDS011;10938;44.794;-0.676;2023-02-15T09:05:28;12.30;;;8.02;;
21554;SDS011;10938;44.794;-0.676;2023-02-15T09:07:53;14.60;;;7.85;;
21554;SDS011;10938;44.794;-0.676;2023-02-15T09:10:19;12.07;;;7.72;;
21554;SDS011;10938;44.794;-0.676;2023-02-15T09:12:45;12.50;;;7.93;;
21554;SDS011;10938;44.794;-0.676;2023-02-15T09:15:10;12.38;;;7.65;;
21554;SDS011;10938;44.794;-0.676;2023-02-15T09:17:36;10.48;;;7.70;;
21554;SDS011;10938;44.794;-0.676;2023-02-15T09:20:01;12.77;;;8.20;;
21554;SDS011;10938;44.794;-0.676;2023-02-15T09:22:27;13.27;;;8.27;;
21554;SDS011;10938;44.794;-0.676;2023-02-15T09:24:53;12.32;;;7.85;;
21554;SDS011;10938;44.794;-0.676;2023-02-15T09:27:18;14.25;;;8.07;;
21554;SDS011;10938;44.794;-0.676;2023-02-15T09:29:44;16.42;;;7.45;;
21554;SDS011;10938;44.794;-0.676;2023-02-15T09:32:09;13.77;;;7.45;;
21554;SDS011;10938;44.794;-0.676;2023-02-15T09:34:39;13.00;;;7.32;;
21554;SDS011;10938;44.794;-0.676;2023-02-15T09:37:05;12.57;;;7.32;;
21554;SDS011;10938;44.794;-0.676;2023-02-15T09:39:31;11.23;;;7.35;;
21554;SDS011;10938;44.794;-0.676;2023-02-15T09:55:43;12.07;;;7.47;;
21554;SDS011;10938;44.794;-0.676;2023-02-15T09:58:26;11.93;;;8.00;;
21554;SDS011;10938;44.794;-0.676;2023-02-15T10:06:27;9.65;;;7.20;;
21554;SDS011;10938;44.794;-0.676;2023-02-15T10:34:09;11.93;;;6.55;;
21554;SDS011;10938;44.794;-0.676;2023-02-15T10:42:27;10.33;;;6.40;;
21554;SDS011;10938;44.794;-0.676;2023-02-15T10:50:49;11.50;;;6.53;;
21554;SDS011;10938;44.794;-0.676;2023-02-15T11:06:14;15.02;;;6.10;;
21554;SDS011;10938;44.794;-0.676;2023-02-15T11:08:43;11.25;;;5.85;;
21554;SDS011;10938;44.794;-0.676;2023-02-15T11:11:19;10.02;;;6.18;;
21554;SDS011;10938;44.794;-0.676;2023-02-15T11:13:48;10.35;;;6.07;;
21554;SDS011;10938;44.794;-0.676;2023-02-15T11:16:22;11.35;;;5.55;;
21554;SDS011;10938;44.794;-0.676;2023-02-15T11:18:56;10.18;;;6.05;;
21554;SDS011;10938;44.794;-0.676;2023-02-15T11:21:31;8.85;;;5.78;;
21554;SDS011;10938;44.794;-0.676;2023-02-15T11:24:07;11.27;;;6.10;;
21554;SDS011;10938;44.794;-0.676;2023-02-15T11:29:28;9.75;;;5.25;;
21554;SDS011;10938;44.794;-0.676;2023-02-15T11:32:03;13.13;;;5.82;;
21554;SDS011;10938;44.794;-0.676;2023-02-15T11:34:37;10.65;;;5.60;;
21554;SDS011;10938;44.794;-0.676;2023-02-15T11:37:08;8.48;;;5.45;;
21554;SDS011;10938;44.794;-0.676;2023-02-15T11:39:37;8.60;;;4.82;;
21554;SDS011;10938;44.794;-0.676;2023-02-15T11:42:07;10.18;;;5.80;;
21554;SDS011;10938;44.794;-0.676;2023-02-15T11:44:43;9.52;;;4.93;;
21554;SDS011;10938;44.794;-0.676;2023-02-15T11:47:14;8.95;;;5.03;;
21554;SDS011;10938;44.794;-0.676;2023-02-15T11:49:39;11.32;;;5.80;;
21554;SDS011;10938;44.794;-0.676;2023-02-15T11:52:06;8.98;;;5.18;;
21554;SDS011;10938;44.794;-0.676;2023-02-15T11:54:36;11.00;;;5.38;;
21554;SDS011;10938;44.794;-0.676;2023-02-15T11:57:11;12.13;;;4.90;;
21554;SDS011;10938;44.794;-0.676;2023-02-15T12:02:26;7.85;;;4.50;;
21554;SDS011;10938;44.794;-0.676;2023-02-15T12:04:58;7.78;;;4.18;;
21554;SDS011;10938;44.794;-0.676;2023-02-15T12:12:41;9.15;;;4.20;;
21554;SDS011;10938;44.794;-0.676;2023-02-15T12:15:08;6.57;;;4.40;;
21554;SDS011;10938;44.794;-0.676;2023-02-15T12:17:41;7.38;;;4.03;;
21554;SDS011;10938;44.794;-0.676;2023-02-15T12:22:49;5.70;;;4.18;;
21554;SDS011;10938;44.794;-0.676;2023-02-15T12:25:27;7.93;;;4.32;;
21554;SDS011;10938;44.794;-0.676;2023-02-15T12:28:00;7.13;;;4.05;;
21554;SDS011;10938;44.794;-0.676;2023-02-15T12:30:30;5.95;;;3.65;;
21554;SDS011;10938;44.794;-0.676;2023-02-15T12:35:32;4.95;;;3.63;;
21554;SDS011;10938;44.794;-0.676;2023-02-15T12:38:04;5.30;;;3.50;;
21554;SDS011;10938;44.794;-0.676;2023-02-15T12:40:56;7.03;;;3.75;;
21554;SDS011;10938;44.794;-0.676;2023-02-15T12:43:47;5.93;;;3.70;;
21554;SDS011;10938;44.794;-0.676;2023-02-15T12:46:27;6.32;;;3.33;;
21554;SDS011;10938;44.794;-0.676;2023-02-15T12:49:05;4.22;;;2.08;;
21554;SDS011;10938;44.794;-0.676;2023-02-15T12:52:22;5.05;;;2.50;;
21554;SDS011;10938;44.794;-0.676;2023-02-15T12:54:35;3.80;;;2.20;;
21554;SDS011;10938;44.794;-0.676;2023-02-15T12:57:38;3.53;;;2.28;;
21554;SDS011;10938;44.794;-0.676;2023-02-15T12:59:59;3.83;;;2.10;;
21554;SDS011;10938;44.794;-0.676;2023-02-15T13:02:29;4.25;;;2.10;;
21554;SDS011;10938;44.794;-0.676;2023-02-15T13:07:53;6.77;;;1.97;;
21554;SDS011;10938;44.794;-0.676;2023-02-15T13:10:32;3.33;;;1.80;;
21554;SDS011;10938;44.794;-0.676;2023-02-15T13:13:02;3.95;;;2.05;;
21554;SDS011;10938;44.794;-0.676;2023-02-15T13:15:36;2.50;;;1.80;;
21554;SDS011;10938;44.794;-0.676;2023-02-15T13:18:04;4.30;;;1.70;;
21554;SDS011;10938;44.794;-0.676;2023-02-15T13:20:34;2.78;;;1.70;;
21554;SDS011;10938;44.794;-0.676;2023-02-15T13:23:04;3.65;;;1.80;;
21554;SDS011;10938;44.794;-0.676;2023-02-15T13:25:49;3.00;;;1.83;;
21554;SDS011;10938;44.794;-0.676;2023-02-15T13:28:17;4.55;;;1.80;;
21554;SDS011;10938;44.794;-0.676;2023-02-15T13:30:45;3.20;;;1.65;;
21554;SDS011;10938;44.794;-0.676;2023-02-15T13:33:26;3.33;;;1.75;;
21554;SDS011;10938;44.794;-0.676;2023-02-15T13:41:34;3.78;;;1.92;;
21554;SDS011;10938;44.794;-0.676;2023-02-15T13:49:36;3.03;;;1.48;;
21554;SDS011;10938;44.794;-0.676;2023-02-15T14:02:46;2.67;;;1.50;;
21554;SDS011;10938;44.794;-0.676;2023-02-15T14:11:11;4.03;;;1.83;;
21554;SDS011;10938;44.794;-0.676;2023-02-15T14:13:49;2.25;;;1.65;;
21554;SDS011;10938;44.794;-0.676;2023-02-15T14:19:11;2.55;;;1.70;;
21554;SDS011;10938;44.794;-0.676;2023-02-15T14:22:15;2.00;;;1.50;;
21554;SDS011;10938;44.794;-0.676;2023-02-15T14:24:44;2.78;;;1.70;;
21554;SDS011;10938;44.794;-0.676;2023-02-15T14:27:27;3.88;;;1.80;;
21554;SDS011;10938;44.794;-0.676;2023-02-15T14:30:02;3.25;;;1.50;;
21554;SDS011;10938;44.794;-0.676;2023-02-15T14:32:36;3.65;;;1.60;;
21554;SDS011;10938;44.794;-0.676;2023-02-15T14:35:14;3.30;;;1.60;;
21554;SDS011;10938;44.794;-0.676;2023-02-15T14:44:03;2.50;;;1.70;;
21554;SDS011;10938;44.794;-0.676;2023-02-15T14:48:54;5.25;;;1.90;;
21554;SDS011;10938;44.794;-0.676;2023-02-15T14:54:11;2.85;;;1.70;;
21554;SDS011;10938;44.794;-0.676;2023-02-15T14:59:26;3.47;;;1.58;;
21554;SDS011;10938;44.794;-0.676;2023-02-15T15:04:45;3.28;;;1.88;;
21554;SDS011;10938;44.794;-0.676;2023-02-15T15:15:28;2.67;;;1.80;;
21554;SDS011;10938;44.794;-0.676;2023-02-15T15:18:10;2.80;;;1.90;;
21554;SDS011;10938;44.794;-0.676;2023-02-15T15:21:10;3.63;;;1.75;;
21554;SDS011;10938;44.794;-0.676;2023-02-15T15:23:40;2.47;;;1.60;;
21554;SDS011;10938;44.794;-0.676;2023-02-15T15:26:30;3.33;;;1.90;;
21554;SDS011;10938;44.794;-0.676;2023-02-15T15:29:01;3.28;;;1.70;;
21554;SDS011;10938;44.794;-0.676;2023-02-15T15:31:31;4.20;;;1.88;;
21554;SDS011;10938;44.794;-0.676;2023-02-15T15:40:35;3.55;;;1.60;;
21554;SDS011;10938;44.794;-0.676;2023-02-15T15:48:28;4.22;;;1.60;;
21554;SDS011;10938;44.794;-0.676;2023-02-15T15:53:52;4.63;;;1.70;;
21554;SDS011;10938;44.794;-0.676;2023-02-15T15:56:26;3.22;;;1.50;;
21554;SDS011;10938;44.794;-0.676;2023-02-15T15:58:57;4.03;;;1.50;;
21554;SDS011;10938;44.794;-0.676;2023-02-15T16:01:29;3.33;;;1.95;;
21554;SDS011;10938;44.794;-0.676;2023-02-15T16:03:59;5.13;;;1.77;;
21554;SDS011;10938;44.794;-0.676;2023-02-15T16:06:34;2.72;;;1.70;;
21554;SDS011;10938;44.794;-0.676;2023-02-15T16:09:36;5.50;;;1.88;;
21554;SDS011;10938;44.794;-0.676;2023-02-15T16:11:55;2.85;;;1.88;;
21554;SDS011;10938;44.794;-0.676;2023-02-15T16:14:30;3.97;;;1.95;;
21554;SDS011;10938;44.794;-0.676;2023-02-15T16:17:01;3.95;;;1.70;;
21554;SDS011;10938;44.794;-0.676;2023-02-15T16:19:33;1.88;;;1.50;;
21554;SDS011;10938;44.794;-0.676;2023-02-15T16:22:14;3.58;;;1.75;;
21554;SDS011;10938;44.794;-0.676;2023-02-15T16:27:47;3.17;;;2.05;;
21554;SDS011;10938;44.794;-0.676;2023-02-15T16:30:30;3.00;;;2.03;;
21554;SDS011;10938;44.794;-0.676;2023-02-15T16:33:07;3.72;;;1.90;;
21554;SDS011;10938;44.794;-0.676;2023-02-15T16:35:36;2.85;;;1.92;;
21554;SDS011;10938;44.794;-0.676;2023-02-15T16:38:04;5.22;;;2.20;;
21554;SDS011;10938;44.794;-0.676;2023-02-15T16:40:35;3.85;;;1.92;;
21554;SDS011;10938;44.794;-0.676;2023-02-15T16:43:20;4.05;;;1.75;;
21554;SDS011;10938;44.794;-0.676;2023-02-15T16:45:50;5.03;;;2.35;;
21554;SDS011;10938;44.794;-0.676;2023-02-15T16:48:19;8.95;;;3.10;;
21554;SDS011;10938;44.794;-0.676;2023-02-15T16:50:50;6.90;;;3.35;;
21554;SDS011;10938;44.794;-0.676;2023-02-15T16:53:19;6.28;;;3.38;;
21554;SDS011;10938;44.794;-0.676;2023-02-15T16:55:55;7.18;;;3.33;;
21554;SDS011;10938;44.794;-0.676;2023-02-15T16:58:25;5.93;;;2.67;;
21554;SDS011;10938;44.794;-0.676;2023-02-15T17:00:57;5.60;;;2.60;;
21554;SDS011;10938;44.794;-0.676;2023-02-15T17:03:24;6.45;;;2.88;;
21554;SDS011;10938;44.794;-0.676;2023-02-15T17:05:55;7.07;;;4.20;;
21554;SDS011;10938;44.794;-0.676;2023-02-15T17:08:29;6.95;;;3.55;;
21554;SDS011;10938;44.794;-0.676;2023-02-15T17:14:10;9.43;;;4.28;;
21554;SDS011;10938;44.794;-0.676;2023-02-15T17:16:32;6.25;;;4.35;;
21554;SDS011;10938;44.794;-0.676;2023-02-15T17:19:08;7.80;;;3.65;;
21554;SDS011;10938;44.794;-0.676;2023-02-15T17:21:40;4.38;;;3.10;;
21554;SDS011;10938;44.794;-0.676;2023-02-15T17:24:22;6.13;;;2.92;;
21554;SDS011;10938;44.794;-0.676;2023-02-15T17:26:57;5.28;;;3.25;;
21554;SDS011;10938;44.794;-0.676;2023-02-15T17:32:00;7.20;;;3.78;;
21554;SDS011;10938;44.794;-0.676;2023-02-15T17:34:43;6.82;;;3.28;;
21554;SDS011;10938;44.794;-0.676;2023-02-15T17:37:13;6.25;;;3.67;;
21554;SDS011;10938;44.794;-0.676;2023-02-15T17:39:48;5.20;;;3.42;;
21554;SDS011;10938;44.794;-0.676;2023-02-15T17:42:14;6.72;;;3.90;;
21554;SDS011;10938;44.794;-0.676;2023-02-15T17:44:39;6.72;;;4.07;;
21554;SDS011;10938;44.794;-0.676;2023-02-15T17:47:05;6.28;;;4.22;;
21554;SDS011;10938;44.794;-0.676;2023-02-15T17:49:30;6.70;;;3.50;;
21554;SDS011;10938;44.794;-0.676;2023-02-15T17:51:59;6.78;;;3.25;;
21554;SDS011;10938;44.794;-0.676;2023-02-15T17:54:26;6.78;;;4.07;;
21554;SDS011;10938;44.794;-0.676;2023-02-15T17:57:14;10.00;;;4.05;;
21554;SDS011;10938;44.794;-0.676;2023-02-15T17:59:41;8.45;;;3.80;;
21554;SDS011;10938;44.794;-0.676;2023-02-15T18:02:26;6.20;;;3.75;;
21554;SDS011;10938;44.794;-0.676;2023-02-15T18:05:17;6.43;;;4.00;;
21554;SDS011;10938;44.794;-0.676;2023-02-15T18:08:01;9.60;;;5.95;;
21554;SDS011;10938;44.794;-0.676;2023-02-15T18:10:45;9.63;;;6.05;;
21554;SDS011;10938;44.794;-0.676;2023-02-15T18:13:29;11.35;;;6.55;;